Аэропорт: Нахичевань. Нахичевань

ICAO: UBBN

METAR:
2018/07/16 20:00
UBBN 162000Z 15012KT 9999 -SHRA SCT040CB BKN090 24/16 Q1006 R14R/CLRD// NOSIG RMK MT OP QFE680
METAR:
2018/07/16 18:00
TAF UBBN 161702Z 1618/1718 23010KT 9999 SCT045 FEW050CB BKN100 TX33/1712Z TN20/1702Z 
      TEMPO 1618/1624 06016KT -TSRA SCT040CB OVC080 
      TEMPO 1710/1718 VRB12KT -TSRA BKN036CB OVC070